Terminal Aerodrome Forecast
Issued by NWS Jackson, MS

Home | Current Version | Previous Version | Text Only | Print | Product List | Glossary On
Versions: 1 2 3 4 5 6 7 8 9 10 11 12 13 14 15 16 17 18 19 20 21 22 23 24 25
000
FTUS44 KJAN 241925 AAB
TAFHBG
TAF AMD
KHBG 241925Z 2419/2518 23006KT 4SM RA BR VCTS BKN040CB OVC110
      TEMPO 2420/2423 25015KT 1/2SM +TSRA FG BKN012 OVC025CB
     FM242300 25005KT P6SM VCTS SCT020 BKN040CB
     FM250100 22003KT P6SM SCT025 BKN100
     FM250800 00000KT 3SM BR OVC007
     FM251430 VRB03KT P6SM BKN015=

USA.gov is the U.S. government's official web portal to all federal, state and local government web resources and services.